Stacja Pogody
Warszawa Praga-Północ

Szerokość 52°15'43"N Długość 21°01'22"E Wysokość 110m n.p.m.


126 dzień roku. Do końca pozostalo 240 dni.
Wschód Słońca 04:57 Górowanie Słońca 12:32 Zachód Słońca 20:07 byk
Data juliańska 2457514.016 Odległość Słońca 150893074 km Średn. kątowa Słońca 0,317°
Wschód Księżyca 04:34 Zachód Księżyca 18:16 Wiek Księżyca 28 dni Moon
Widoczność Księżyca 2,48% Odległość Księżyca 363306 km Średn. kątowa Księżyca 0,329°
Dzień krótszy od najdłuższego o: 01:37 Długość dnia 15:10 Imieniny Ireny, Waldemara



  Aktualizacja: 05-05-2016 12:21:44
TEMPERATURA
Aktualnie: 24.2°C ↑↑↑
Temperatura odczuwalna:22.5°C
Punkt rosy4.6°C
WIATR
Średnia prędkość: 2.5km/h ↑
Prędkość w podmuchach:3.6km/h
Przepływ w ciągu doby:49.6km
Kierunek wiatru:270°
CIŚNIENIE
Względne:1022.6hPa
Bezwzględne:1009.3hPa
Trend ciśnienia:powolny spadek
WILGOTNOŚĆ
Wilgotność względna: 28% ↓
Podstawa chmur5906m
DESZCZ
W ostatniej godzinie: 0.0mm
Dzisiaj:0.0mm
W tym miesiącu:26.4mm
METAR
EPWA 051000Z 01010KT 320V050 CAVOK 20/06 Q1024 NOSIG
Ostrzeżenia burzowe





a  a a